Time;durP1;ratioP1;P1;durP2;ratioP2;P2;SDS_P1;SDS_P2;PMS_P1;PMS_P2;Temp;Humidity;BMP_temperature;BMP_pressure;BME280_temperature;BME280_humidity;BME280_pressure;Samples;Min_cycle;Max_cycle;Signal;HPM_P1;HPM_P2
2023/12/08 00:02:19;;;;;;;4.60;4.27;;;19.10;38.40;;;;;;5064232;28;20224;-89
2023/12/08 00:04:44;;;;;;;4.03;3.73;;;19.00;38.30;;;;;;5068870;28;20217;-89
2023/12/08 00:07:10;;;;;;;4.53;4.23;;;19.00;38.30;;;;;;5044956;28;20209;-88
2023/12/08 00:09:35;;;;;;;3.77;3.57;;;19.00;38.30;;;;;;5064833;27;20305;-88
2023/12/08 00:12:06;;;;;;;4.40;4.10;;;19.00;38.30;;;;;;5032339;28;20548;-88
2023/12/08 00:14:31;;;;;;;4.73;4.43;;;19.00;38.30;;;;;;5022703;28;20223;-89
2023/12/08 00:16:57;;;;;;;4.30;4.00;;;19.00;38.30;;;;;;5044989;28;20454;-88
2023/12/08 00:19:23;;;;;;;3.87;3.67;;;19.00;38.30;;;;;;5067849;28;20228;-85
2023/12/08 00:21:48;;;;;;;4.37;4.10;;;19.00;38.30;;;;;;5065391;28;20898;-89
2023/12/08 00:24:14;;;;;;;4.00;3.70;;;19.00;38.30;;;;;;5062704;28;20302;-90
2023/12/08 00:26:39;;;;;;;4.00;3.80;;;19.00;38.30;;;;;;5049823;28;20656;-87
2023/12/08 00:29:05;;;;;;;3.60;3.40;;;19.00;38.30;;;;;;5066004;28;20286;-87
2023/12/08 00:31:31;;;;;;;3.57;3.37;;;19.00;38.30;;;;;;5063998;28;20301;-86
2023/12/08 00:33:57;;;;;;;3.30;3.10;;;19.00;39.10;;;;;;5066878;28;20232;-88
2023/12/08 00:36:22;;;;;;;3.43;3.23;;;19.00;39.10;;;;;;5067311;28;20433;-88
2023/12/08 00:38:48;;;;;;;3.80;3.60;;;19.00;38.30;;;;;;5066002;28;20755;-90
2023/12/08 00:41:14;;;;;;;3.27;3.07;;;19.00;38.30;;;;;;5046349;28;20237;-86
2023/12/08 00:43:39;;;;;;;3.20;3.00;;;19.00;38.30;;;;;;5065335;28;20225;-89
2023/12/08 00:46:05;;;;;;;3.73;3.43;;;19.00;38.30;;;;;;5069265;28;20240;-89
2023/12/08 00:48:30;;;;;;;3.50;3.30;;;19.00;38.30;;;;;;5066384;28;20217;-88
2023/12/08 00:50:56;;;;;;;3.90;3.63;;;19.00;38.30;;;;;;5068555;28;20235;-87
2023/12/08 00:53:21;;;;;;;3.50;3.30;;;19.00;38.50;;;;;;5065017;28;20270;-86
2023/12/08 00:55:47;;;;;;;3.73;3.47;;;19.00;38.30;;;;;;5068842;28;25634;-89
2023/12/08 00:58:14;;;;;;;3.97;3.77;;;19.00;38.30;;;;;;5070387;28;20228;-90
2023/12/08 01:00:40;;;;;;;3.60;3.30;;;19.00;38.30;;;;;;5067106;28;20217;-86
2023/12/08 01:03:06;;;;;;;3.50;3.20;;;19.00;38.30;;;;;;5061649;28;20946;-88
2023/12/08 01:05:31;;;;;;;4.90;3.23;;;19.00;38.30;;;;;;5061465;28;20736;-89
2023/12/08 01:07:57;;;;;;;3.77;3.57;;;19.00;38.30;;;;;;5066461;28;21854;-90
2023/12/08 01:10:22;;;;;;;3.30;3.10;;;19.00;38.30;;;;;;5065860;28;20247;-89
2023/12/08 01:12:48;;;;;;;3.87;3.57;;;19.00;38.30;;;;;;5065822;28;20259;-86
2023/12/08 01:15:13;;;;;;;3.17;2.97;;;19.00;38.30;;;;;;5063638;28;20685;-86
2023/12/08 01:17:39;;;;;;;3.83;3.53;;;19.00;38.30;;;;;;5048553;28;21202;-88
2023/12/08 01:20:07;;;;;;;3.60;3.40;;;19.00;38.30;;;;;;5063963;28;20443;-89
2023/12/08 01:22:33;;;;;;;8.77;4.40;;;19.00;38.30;;;;;;5064878;28;20228;-90
2023/12/08 01:24:58;;;;;;;3.50;3.30;;;19.00;38.30;;;;;;5046041;28;20461;-86
2023/12/08 01:27:24;;;;;;;3.40;3.10;;;19.00;38.30;;;;;;5064652;28;20231;-90
2023/12/08 01:29:50;;;;;;;3.40;3.20;;;19.00;38.30;;;;;;5064980;28;20685;-90
2023/12/08 01:32:15;;;;;;;3.23;3.03;;;19.00;38.30;;;;;;5063710;28;20743;-89
2023/12/08 01:34:41;;;;;;;3.30;3.10;;;19.00;38.30;;;;;;5066624;28;20220;-90
2023/12/08 01:37:07;;;;;;;3.60;3.40;;;19.00;38.30;;;;;;5063585;27;20255;-90
2023/12/08 01:39:32;;;;;;;3.40;3.20;;;19.00;38.30;;;;;;5063223;28;20256;-89
2023/12/08 01:41:58;;;;;;;3.37;3.00;;;19.00;38.30;;;;;;5064281;28;20232;-89
2023/12/08 01:44:23;;;;;;;3.50;3.30;;;19.00;38.30;;;;;;5062754;28;20232;-87
2023/12/08 01:46:50;;;;;;;3.47;3.27;;;19.00;39.10;;;;;;5066292;28;20235;-89
2023/12/08 01:49:16;;;;;;;3.10;2.60;;;19.00;38.30;;;;;;5062575;28;20245;-89
2023/12/08 01:51:46;;;;;;;3.07;2.87;;;19.00;38.30;;;;;;5068895;28;20474;-88
2023/12/08 01:54:14;;;;;;;3.13;2.93;;;19.00;38.30;;;;;;5063672;28;20460;-88
2023/12/08 01:56:40;;;;;;;3.60;3.33;;;19.00;38.30;;;;;;5068759;28;20822;-87
2023/12/08 01:59:07;;;;;;;3.63;3.30;;;19.00;38.30;;;;;;5062221;28;20481;-87
2023/12/08 02:01:34;;;;;;;3.37;3.17;;;19.00;38.30;;;;;;5062772;28;20343;-87
2023/12/08 02:03:59;;;;;;;3.37;3.07;;;19.00;38.30;;;;;;5064667;28;20454;-86
2023/12/08 02:06:25;;;;;;;2.90;2.70;;;19.00;38.30;;;;;;5068270;28;20439;-86
2023/12/08 02:08:51;;;;;;;2.57;2.40;;;19.00;38.30;;;;;;5065427;28;21170;-86
2023/12/08 02:11:18;;;;;;;2.97;2.77;;;19.00;39.10;;;;;;5071017;28;20231;-86
2023/12/08 02:13:44;;;;;;;2.60;2.50;;;19.00;38.30;;;;;;5064714;28;20523;-85
2023/12/08 02:16:29;;;;;;;3.20;3.00;;;19.00;38.30;;;;;;5067643;28;20464;-86
2023/12/08 02:18:56;;;;;;;3.07;2.87;;;19.00;39.10;;;;;;5068063;27;20465;-85
2023/12/08 02:21:22;;;;;;;3.13;2.93;;;19.00;38.30;;;;;;5052057;28;20790;-85
2023/12/08 02:23:48;;;;;;;3.27;3.07;;;19.00;38.30;;;;;;5065824;28;22698;-86
2023/12/08 02:26:15;;;;;;;3.30;3.10;;;19.00;38.30;;;;;;5044575;28;21423;-87
2023/12/08 02:28:41;;;;;;;2.70;2.50;;;19.00;39.10;;;;;;5045682;28;20515;-85
2023/12/08 02:31:13;;;;;;;2.80;2.70;;;19.00;38.30;;;;;;5066374;27;20473;-86
2023/12/08 02:33:41;;;;;;;3.20;3.00;;;19.00;38.30;;;;;;5067710;28;20228;-86
2023/12/08 02:36:08;;;;;;;3.27;3.07;;;19.00;38.30;;;;;;5070085;28;20523;-86
2023/12/08 02:38:34;;;;;;;3.13;2.93;;;19.00;38.30;;;;;;5068621;28;20490;-86
2023/12/08 02:41:00;;;;;;;3.13;2.93;;;19.00;38.50;;;;;;5053058;28;20465;-85
2023/12/08 02:43:25;;;;;;;3.03;2.83;;;19.00;38.30;;;;;;5054606;28;20277;-85
2023/12/08 02:45:51;;;;;;;3.03;2.83;;;19.00;38.30;;;;;;5069422;27;20795;-85
2023/12/08 02:48:16;;;;;;;2.90;2.70;;;19.00;39.10;;;;;;5067025;28;21580;-86
2023/12/08 02:50:43;;;;;;;3.30;3.10;;;19.00;38.30;;;;;;5064798;28;20742;-86
2023/12/08 02:53:08;;;;;;;3.10;2.90;;;19.00;38.30;;;;;;5048248;28;20664;-86
2023/12/08 02:55:34;;;;;;;3.40;3.10;;;19.00;38.30;;;;;;5068414;28;20447;-86
2023/12/08 02:57:59;;;;;;;3.30;3.10;;;19.00;38.30;;;;;;5070259;28;20219;-85
2023/12/08 03:00:25;;;;;;;3.17;2.97;;;19.00;38.30;;;;;;5067407;28;20235;-86
2023/12/08 03:02:50;;;;;;;2.63;2.50;;;18.90;38.20;;;;;;5067536;28;20225;-86
2023/12/08 03:05:16;;;;;;;3.30;3.10;;;19.00;39.10;;;;;;5054086;28;20231;-86
2023/12/08 03:07:41;;;;;;;3.07;2.87;;;19.00;38.30;;;;;;5069729;27;20220;-85
2023/12/08 03:10:07;;;;;;;3.30;3.10;;;18.90;38.20;;;;;;5069028;28;20714;-86
2023/12/08 03:12:33;;;;;;;2.60;2.50;;;18.90;38.20;;;;;;5069984;28;20696;-85
2023/12/08 03:14:59;;;;;;;3.13;2.93;;;18.90;38.20;;;;;;5066695;28;20465;-86
2023/12/08 03:17:24;;;;;;;3.20;3.00;;;18.90;38.20;;;;;;5068471;28;20720;-85
2023/12/08 03:19:50;;;;;;;2.83;2.63;;;18.90;38.20;;;;;;5064443;28;20231;-85
2023/12/08 03:22:15;;;;;;;3.20;3.00;;;18.90;38.20;;;;;;5053221;28;20610;-86
2023/12/08 03:24:41;;;;;;;2.60;2.50;;;18.90;38.20;;;;;;5067084;27;20659;-86
2023/12/08 03:27:06;;;;;;;2.73;2.63;;;18.90;38.20;;;;;;5069741;27;20243;-86
2023/12/08 03:29:32;;;;;;;3.17;2.97;;;18.90;38.20;;;;;;5066019;28;20701;-87
2023/12/08 03:31:57;;;;;;;2.63;2.53;;;18.90;38.20;;;;;;5067426;28;20228;-88
2023/12/08 03:34:23;;;;;;;3.00;2.80;;;18.90;38.20;;;;;;5047773;28;20231;-87
2023/12/08 03:36:48;;;;;;;3.20;3.00;;;18.90;38.20;;;;;;5065353;27;20225;-87
2023/12/08 03:39:14;;;;;;;3.10;2.90;;;19.00;38.30;;;;;;5052490;28;20221;-87
2023/12/08 03:41:40;;;;;;;3.40;3.20;;;18.90;38.20;;;;;;5066921;28;20752;-86
2023/12/08 03:44:05;;;;;;;2.70;2.60;;;18.90;38.20;;;;;;5063152;28;20284;-88
2023/12/08 03:46:31;;;;;;;2.30;2.20;;;18.90;38.20;;;;;;5049837;27;20220;-88
2023/12/08 03:48:57;;;;;;;2.40;2.30;;;18.90;38.20;;;;;;5070941;28;20398;-88
2023/12/08 03:51:22;;;;;;;2.77;2.57;;;18.90;38.20;;;;;;5067363;28;20666;-86
2023/12/08 03:53:48;;;;;;;3.57;3.10;;;18.90;38.20;;;;;;5066781;28;20232;-88
2023/12/08 03:56:13;;;;;;;3.30;3.10;;;18.90;38.30;;;;;;5062636;28;20212;-85
2023/12/08 03:58:39;;;;;;;3.13;2.93;;;18.90;38.20;;;;;;5067157;27;20669;-86
2023/12/08 04:01:05;;;;;;;3.20;3.00;;;18.90;38.20;;;;;;5067320;28;20228;-86
2023/12/08 04:03:30;;;;;;;2.70;2.60;;;18.90;38.10;;;;;;5065158;28;20229;-87
2023/12/08 04:05:56;;;;;;;2.70;2.50;;;18.90;38.10;;;;;;5068560;28;20244;-85
2023/12/08 04:08:21;;;;;;;2.57;2.47;;;18.90;38.10;;;;;;5067436;28;20227;-86
2023/12/08 04:10:47;;;;;;;3.20;3.00;;;18.90;38.20;;;;;;5071528;27;20228;-87
2023/12/08 04:13:13;;;;;;;3.30;3.10;;;18.90;38.10;;;;;;5061416;28;20217;-87
2023/12/08 04:15:38;;;;;;;3.20;3.00;;;18.90;38.00;;;;;;5047138;28;20455;-87
2023/12/08 04:18:05;;;;;;;2.53;2.40;;;18.90;38.00;;;;;;5055310;28;20228;-88
2023/12/08 04:20:31;;;;;;;2.90;2.70;;;18.90;38.00;;;;;;5073444;27;20235;-87
2023/12/08 04:22:56;;;;;;;2.93;2.73;;;18.90;37.90;;;;;;5071834;28;20428;-87
2023/12/08 04:25:22;;;;;;;2.73;2.53;;;18.90;37.90;;;;;;5065512;28;20572;-87
2023/12/08 04:27:48;;;;;;;3.10;2.90;;;18.90;37.90;;;;;;5068390;28;20607;-89
2023/12/08 04:30:14;;;;;;;2.90;2.70;;;18.90;37.80;;;;;;5046253;28;20517;-86
2023/12/08 04:32:39;;;;;;;2.90;2.70;;;18.90;37.80;;;;;;5066612;28;20225;-86
2023/12/08 04:35:05;;;;;;;3.07;2.87;;;18.90;37.80;;;;;;5066001;28;20344;-87
2023/12/08 04:37:31;;;;;;;3.10;2.90;;;18.90;37.80;;;;;;5065416;28;20227;-85
2023/12/08 04:39:57;;;;;;;2.60;2.50;;;18.90;37.80;;;;;;5063753;28;20440;-87
2023/12/08 04:42:22;;;;;;;2.90;2.70;;;18.90;37.80;;;;;;5060969;27;20217;-86
2023/12/08 04:44:48;;;;;;;4.10;3.17;;;18.90;37.90;;;;;;5063676;28;20323;-87
2023/12/08 04:47:13;;;;;;;2.73;2.53;;;18.90;37.80;;;;;;5065952;28;20259;-86
2023/12/08 04:49:39;;;;;;;2.63;2.43;;;18.90;37.80;;;;;;5051142;28;20229;-86
2023/12/08 04:52:04;;;;;;;3.23;3.03;;;18.90;37.80;;;;;;5045682;28;20635;-85
2023/12/08 04:54:30;;;;;;;2.50;2.40;;;18.90;37.80;;;;;;5045088;28;20228;-87
2023/12/08 04:56:56;;;;;;;2.20;2.10;;;19.00;37.80;;;;;;5057671;28;20232;-87
2023/12/08 04:59:21;;;;;;;2.33;2.23;;;19.00;37.80;;;;;;5056660;28;20236;-87
2023/12/08 05:01:51;;;;;;;3.07;2.87;;;19.00;37.80;;;;;;5045345;28;20676;-87
2023/12/08 05:04:17;;;;;;;2.40;2.20;;;19.00;37.80;;;;;;5059813;27;20307;-87
2023/12/08 05:06:43;;;;;;;2.50;2.40;;;19.00;37.80;;;;;;5059375;28;20441;-86
2023/12/08 05:09:10;;;;;;;2.73;2.53;;;19.00;37.80;;;;;;5061570;28;20551;-87
2023/12/08 05:11:36;;;;;;;2.60;2.40;;;19.00;37.70;;;;;;5060431;28;20442;-86
2023/12/08 05:14:02;;;;;;;2.80;2.70;;;19.00;37.70;;;;;;5057501;27;20806;-85
2023/12/08 05:16:28;;;;;;;3.63;2.63;;;19.00;37.70;;;;;;5061917;28;20543;-87
2023/12/08 05:18:54;;;;;;;2.90;2.70;;;19.00;37.60;;;;;;5061062;28;20465;-86
2023/12/08 05:21:20;;;;;;;2.50;2.40;;;19.10;37.60;;;;;;5061744;28;20797;-85
2023/12/08 05:23:45;;;;;;;2.30;2.20;;;19.10;38.40;;;;;;5061744;28;20239;-88
2023/12/08 05:26:11;;;;;;;2.10;2.00;;;19.10;37.60;;;;;;5062282;28;20247;-87
2023/12/08 05:28:36;;;;;;;2.37;2.27;;;19.10;37.60;;;;;;5059026;28;20933;-87
2023/12/08 05:31:04;;;;;;;2.60;2.40;;;19.10;37.60;;;;;;5046758;28;20236;-86
2023/12/08 05:33:29;;;;;;;2.27;2.10;;;19.10;37.60;;;;;;5062088;28;20225;-86
2023/12/08 05:35:55;;;;;;;2.73;2.53;;;19.10;37.70;;;;;;5067033;27;20443;-87
2023/12/08 05:38:21;;;;;;;2.30;2.20;;;19.10;37.60;;;;;;5065023;27;20240;-87
2023/12/08 05:40:46;;;;;;;2.23;2.13;;;19.10;37.40;;;;;;5065014;28;20286;-87
2023/12/08 05:43:12;;;;;;;2.90;2.70;;;19.10;37.40;;;;;;5067166;28;20239;-85
2023/12/08 05:45:38;;;;;;;2.50;2.40;;;19.10;37.40;;;;;;5051293;28;20228;-85
2023/12/08 05:48:04;;;;;;;2.40;2.20;;;19.10;37.50;;;;;;5070812;28;20225;-86
2023/12/08 05:50:29;;;;;;;2.53;2.40;;;19.10;37.50;;;;;;5073071;28;20291;-86
2023/12/08 05:52:56;;;;;;;2.27;2.17;;;19.10;37.50;;;;;;5071507;28;20440;-86
2023/12/08 05:55:22;;;;;;;2.60;2.50;;;19.10;37.60;;;;;;5070801;28;20573;-85
2023/12/08 05:57:47;;;;;;;2.37;2.27;;;19.10;37.70;;;;;;5049246;28;21038;-89
2023/12/08 06:00:17;;;;;;;2.20;2.10;;;19.10;37.60;;;;;;5070237;28;20228;-86
2023/12/08 06:02:43;;;;;;;2.17;2.07;;;19.10;37.60;;;;;;5070253;28;20675;-87
2023/12/08 06:05:10;;;;;;;2.67;2.50;;;19.10;37.60;;;;;;5068122;28;21178;-90
2023/12/08 06:07:36;;;;;;;2.37;2.23;;;19.10;37.70;;;;;;5065413;28;20227;-88
2023/12/08 06:10:02;;;;;;;2.20;2.10;;;19.10;37.70;;;;;;5065236;28;20443;-87
2023/12/08 06:12:28;;;;;;;2.20;2.10;;;19.10;37.70;;;;;;5067415;28;20227;-88
2023/12/08 06:14:54;;;;;;;3.17;2.97;;;19.10;37.80;;;;;;5067649;28;21011;-87
2023/12/08 06:17:20;;;;;;;2.33;2.23;;;19.10;37.80;;;;;;5067268;28;20310;-89
2023/12/08 06:19:45;;;;;;;2.80;2.60;;;19.10;37.80;;;;;;5059000;28;20427;-89
2023/12/08 06:22:11;;;;;;;4.07;2.10;;;19.10;37.80;;;;;;5059260;28;20216;-89
2023/12/08 06:24:36;;;;;;;2.03;1.93;;;19.10;37.80;;;;;;5068958;28;20216;-88
2023/12/08 06:27:03;;;;;;;2.60;2.40;;;19.10;37.80;;;;;;5068905;28;20212;-88
2023/12/08 06:29:28;;;;;;;2.47;2.37;;;19.10;37.80;;;;;;5074287;28;20325;-89
2023/12/08 06:31:54;;;;;;;2.27;2.17;;;19.10;37.80;;;;;;5070953;28;20469;-89
2023/12/08 06:34:20;;;;;;;1.93;1.83;;;19.10;37.80;;;;;;5075583;28;20265;-88
2023/12/08 06:36:46;;;;;;;2.10;2.00;;;19.10;37.80;;;;;;5056520;28;20637;-88
2023/12/08 06:39:16;;;;;;;2.13;2.03;;;19.10;37.90;;;;;;5069290;28;20229;-86
2023/12/08 06:41:41;;;;;;;2.23;2.13;;;19.10;37.90;;;;;;5053986;28;21080;-87
2023/12/08 06:44:07;;;;;;;2.37;2.20;;;19.10;37.90;;;;;;5072263;28;20477;-87
2023/12/08 06:46:33;;;;;;;2.30;2.20;;;19.10;38.00;;;;;;5076710;28;20224;-87
2023/12/08 06:48:58;;;;;;;2.30;2.20;;;19.10;38.00;;;;;;5073926;28;20879;-86
2023/12/08 06:51:24;;;;;;;2.23;2.03;;;19.10;38.00;;;;;;5077028;28;20294;-87
2023/12/08 06:53:49;;;;;;;2.33;2.00;;;19.10;38.00;;;;;;5074349;28;20270;-87
2023/12/08 06:56:15;;;;;;;2.33;2.17;;;19.10;38.00;;;;;;5077627;28;20225;-87
2023/12/08 06:58:41;;;;;;;2.50;2.30;;;19.10;38.10;;;;;;5076754;28;20550;-87
2023/12/08 07:01:06;;;;;;;2.30;2.10;;;19.00;37.90;;;;;;5059676;28;20237;-87
2023/12/08 07:03:32;;;;;;;2.07;1.97;;;19.10;38.00;;;;;;5077423;28;20225;-87
2023/12/08 07:05:58;;;;;;;2.53;2.33;;;19.10;38.00;;;;;;5079483;28;20642;-87
2023/12/08 07:08:23;;;;;;;2.20;2.00;;;19.00;37.90;;;;;;5077307;28;20240;-87
2023/12/08 07:10:49;;;;;;;2.13;1.97;;;19.00;37.90;;;;;;5079989;28;20240;-87
2023/12/08 07:13:14;;;;;;;2.27;2.17;;;19.10;38.20;;;;;;5076843;28;21863;-87
2023/12/08 07:15:40;;;;;;;2.40;2.30;;;19.00;38.00;;;;;;5062185;28;20295;-88
2023/12/08 07:18:05;;;;;;;2.20;2.10;;;19.00;38.00;;;;;;5077450;28;21214;-87
2023/12/08 07:20:31;;;;;;;2.30;2.20;;;19.00;38.00;;;;;;5076400;28;20234;-87
2023/12/08 07:22:57;;;;;;;1.83;1.73;;;19.00;38.00;;;;;;5072697;28;20219;-87
2023/12/08 07:25:22;;;;;;;2.10;2.00;;;19.00;38.00;;;;;;5078136;28;20255;-88
2023/12/08 07:27:48;;;;;;;2.43;2.23;;;19.00;38.00;;;;;;5077447;28;20267;-87
2023/12/08 07:30:13;;;;;;;2.00;1.90;;;19.00;38.00;;;;;;5076796;28;20613;-87
2023/12/08 07:32:39;;;;;;;2.50;2.40;;;19.00;38.10;;;;;;5079034;28;20571;-87
2023/12/08 07:35:06;;;;;;;1.90;1.80;;;19.00;38.10;;;;;;5077981;27;21118;-88
2023/12/08 07:37:31;;;;;;;2.17;2.07;;;19.10;38.10;;;;;;5078445;28;20311;-87
2023/12/08 07:39:57;;;;;;;2.10;2.00;;;19.00;38.10;;;;;;5059914;28;20458;-88
2023/12/08 07:42:22;;;;;;;2.30;2.20;;;19.00;38.10;;;;;;5080187;28;20230;-86
2023/12/08 07:44:48;;;;;;;2.00;1.90;;;19.10;38.20;;;;;;5073659;28;20766;-87
2023/12/08 07:47:14;;;;;;;2.47;2.27;;;19.00;38.20;;;;;;5078950;28;20684;-87
2023/12/08 07:49:40;;;;;;;2.27;2.17;;;19.00;38.10;;;;;;5079188;28;20229;-87
2023/12/08 07:52:05;;;;;;;2.20;2.10;;;19.00;38.10;;;;;;5077815;28;21046;-87
2023/12/08 07:54:32;;;;;;;2.00;1.90;;;19.00;38.20;;;;;;5078199;28;20255;-86
2023/12/08 07:56:58;;;;;;;2.03;1.90;;;19.00;38.20;;;;;;5060075;28;21874;-87
2023/12/08 07:59:25;;;;;;;2.00;1.90;;;19.00;38.20;;;;;;5078701;28;20458;-87
2023/12/08 08:01:50;;;;;;;2.30;2.10;;;19.00;38.20;;;;;;5074533;28;20510;-87
2023/12/08 08:04:16;;;;;;;2.27;2.07;;;19.00;38.20;;;;;;5076492;28;21197;-86
2023/12/08 08:06:42;;;;;;;2.67;2.50;;;19.00;38.30;;;;;;5077961;28;20216;-87
2023/12/08 08:09:07;;;;;;;2.10;2.00;;;19.00;38.30;;;;;;5076416;28;20231;-87
2023/12/08 08:11:33;;;;;;;2.20;2.10;;;19.00;38.30;;;;;;5077401;28;20221;-87
2023/12/08 08:13:58;;;;;;;2.00;1.90;;;19.00;38.30;;;;;;5077192;28;20247;-87
2023/12/08 08:16:24;;;;;;;2.33;2.23;;;19.00;38.30;;;;;;5058232;28;20217;-87
2023/12/08 08:18:49;;;;;;;2.17;1.90;;;19.00;38.30;;;;;;5059451;27;20228;-87
2023/12/08 08:21:15;;;;;;;2.20;2.10;;;19.00;38.30;;;;;;5076893;28;20225;-87
2023/12/08 08:23:41;;;;;;;2.10;2.00;;;19.00;38.30;;;;;;5075995;28;20224;-87
2023/12/08 08:26:07;;;;;;;2.00;1.90;;;19.00;38.30;;;;;;5076538;28;20232;-87
2023/12/08 08:28:32;;;;;;;2.00;1.90;;;19.00;38.30;;;;;;5073465;28;20590;-87
2023/12/08 08:30:58;;;;;;;4.37;2.83;;;19.00;38.30;;;;;;5078101;27;20253;-86
2023/12/08 08:33:23;;;;;;;2.50;2.40;;;19.00;38.30;;;;;;5076356;28;20220;-87
2023/12/08 08:35:49;;;;;;;1.90;1.80;;;19.00;38.30;;;;;;5076848;28;20327;-87
2023/12/08 08:38:15;;;;;;;2.60;2.40;;;19.00;38.30;;;;;;5077045;28;20444;-86
2023/12/08 08:40:41;;;;;;;2.10;2.00;;;19.00;38.30;;;;;;5059218;28;20330;-87
2023/12/08 08:43:06;;;;;;;2.33;2.07;;;19.00;38.90;;;;;;5072787;28;20232;-88
2023/12/08 08:45:32;;;;;;;2.00;1.90;;;19.00;38.30;;;;;;5075253;28;20488;-87
2023/12/08 08:47:58;;;;;;;3.53;1.80;;;19.00;38.30;;;;;;5061612;28;20385;-87
2023/12/08 08:50:23;;;;;;;2.30;2.20;;;19.00;38.30;;;;;;5076442;28;20224;-87
2023/12/08 08:52:49;;;;;;;2.10;2.00;;;19.00;38.30;;;;;;5077579;28;20552;-87
2023/12/08 08:55:15;;;;;;;1.80;1.70;;;19.00;38.30;;;;;;5075780;28;20306;-88
2023/12/08 08:57:40;;;;;;;1.73;1.63;;;19.00;38.30;;;;;;5077445;28;20235;-87
2023/12/08 09:00:11;;;;;;;2.00;1.90;;;19.00;38.30;;;;;;5077680;28;20236;-87
2023/12/08 09:02:37;;;;;;;2.37;1.90;;;19.00;38.30;;;;;;5077522;28;20225;-87
2023/12/08 09:05:03;;;;;;;2.70;2.57;;;19.00;38.30;;;;;;5061625;28;21095;-88
2023/12/08 09:07:28;;;;;;;2.13;2.03;;;19.00;38.30;;;;;;5078489;28;20582;-87
2023/12/08 09:09:54;;;;;;;2.00;1.90;;;19.00;38.40;;;;;;5077332;28;20232;-87
2023/12/08 09:12:19;;;;;;;1.90;1.80;;;19.00;38.30;;;;;;5060640;28;20327;-87
2023/12/08 09:14:45;;;;;;;2.20;2.03;;;19.00;38.40;;;;;;5076336;27;20230;-86
2023/12/08 09:17:10;;;;;;;2.00;1.80;;;19.00;38.30;;;;;;5078219;28;20305;-87
2023/12/08 09:19:37;;;;;;;1.80;1.70;;;19.00;38.30;;;;;;5077116;28;20912;-87
2023/12/08 09:22:04;;;;;;;2.00;1.90;;;19.00;38.30;;;;;;5074334;28;20237;-87
2023/12/08 09:24:29;;;;;;;1.97;1.87;;;19.00;38.30;;;;;;5073678;28;20436;-86
2023/12/08 09:26:55;;;;;;;1.90;1.80;;;19.00;38.30;;;;;;5077863;28;20466;-87
2023/12/08 09:29:21;;;;;;;2.20;2.10;;;19.00;38.30;;;;;;5075538;28;20256;-87
2023/12/08 09:31:47;;;;;;;2.30;2.20;;;19.00;38.30;;;;;;5074952;28;20274;-87
2023/12/08 09:34:12;;;;;;;2.23;2.13;;;19.00;38.30;;;;;;5058476;28;20460;-87
2023/12/08 09:36:38;;;;;;;2.10;2.00;;;19.00;38.30;;;;;;5076719;28;20220;-87
2023/12/08 09:39:04;;;;;;;2.03;1.93;;;19.00;38.30;;;;;;5080698;28;20337;-87
2023/12/08 09:41:30;;;;;;;2.30;2.20;;;19.00;38.30;;;;;;5079352;28;20296;-87
2023/12/08 09:44:05;;;;;;;1.93;1.83;;;19.00;38.30;;;;;;5082599;28;20549;-87
2023/12/08 09:46:32;;;;;;;1.80;1.70;;;19.00;38.30;;;;;;5085700;28;20483;-87
2023/12/08 09:49:00;;;;;;;1.73;1.63;;;19.00;38.30;;;;;;5082388;28;20427;-87
2023/12/08 09:51:28;;;;;;;2.80;2.10;;;19.00;38.30;;;;;;5063775;28;20797;-87
2023/12/08 09:53:53;;;;;;;2.10;2.00;;;19.00;38.30;;;;;;5061991;28;20820;-87
2023/12/08 09:56:21;;;;;;;1.70;1.60;;;18.90;38.20;;;;;;5078455;28;20425;-87
2023/12/08 09:58:47;;;;;;;2.00;1.90;;;19.00;38.50;;;;;;5082498;28;20304;-87
2023/12/08 10:01:13;;;;;;;2.20;2.10;;;18.90;38.20;;;;;;5081217;28;20435;-87
2023/12/08 10:03:43;;;;;;;2.10;2.00;;;18.90;38.20;;;;;;5082527;28;20452;-87
2023/12/08 10:06:09;;;;;;;1.97;1.87;;;18.90;38.20;;;;;;5081453;28;20465;-87
2023/12/08 10:08:36;;;;;;;2.43;2.03;;;18.90;38.20;;;;;;5079340;28;20454;-86
2023/12/08 10:11:02;;;;;;;2.80;1.87;;;18.90;39.00;;;;;;5079865;27;20457;-87
2023/12/08 10:13:28;;;;;;;1.73;1.63;;;18.90;38.20;;;;;;5079057;28;20446;-87
2023/12/08 10:15:55;;;;;;;2.00;1.90;;;18.90;38.20;;;;;;5079322;28;20237;-87
2023/12/08 10:18:25;;;;;;;1.90;1.80;;;18.90;38.20;;;;;;5078896;28;20249;-87
2023/12/08 10:20:52;;;;;;;1.67;1.57;;;18.90;38.20;;;;;;5078771;27;20495;-87
2023/12/08 10:23:21;;;;;;;2.40;2.30;;;18.90;38.20;;;;;;5081009;28;20693;-87
2023/12/08 10:25:47;;;;;;;2.07;1.60;;;18.90;38.20;;;;;;5062578;28;20457;-87
2023/12/08 10:28:13;;;;;;;1.80;1.70;;;18.90;38.20;;;;;;5082288;28;20443;-87
2023/12/08 10:30:51;;;;;;;2.20;2.10;;;18.90;38.20;;;;;;5080250;28;20458;-87
2023/12/08 10:33:21;;;;;;;2.13;2.03;;;18.90;38.20;;;;;;5080412;28;20500;-87
2023/12/08 10:35:47;;;;;;;1.93;1.83;;;19.00;38.30;;;;;;5080223;28;20445;-87
2023/12/08 10:38:15;;;;;;;1.80;1.70;;;18.90;38.20;;;;;;5081970;28;20468;-87
2023/12/08 10:40:49;;;;;;;1.97;1.87;;;18.90;38.20;;;;;;5081849;28;20927;-88
2023/12/08 10:43:22;;;;;;;2.20;2.10;;;18.90;38.20;;;;;;5078662;28;20428;-87
2023/12/08 10:45:55;;;;;;;1.90;1.80;;;18.90;38.20;;;;;;5078739;28;20479;-87
2023/12/08 10:48:24;;;;;;;2.20;2.10;;;18.90;38.20;;;;;;5060837;28;20453;-87
2023/12/08 10:50:52;;;;;;;1.80;1.70;;;18.90;38.20;;;;;;5083143;28;20474;-87
2023/12/08 10:53:19;;;;;;;2.10;2.00;;;18.90;38.20;;;;;;5081207;28;20950;-87
2023/12/08 10:56:03;;;;;;;2.17;1.93;;;18.90;38.20;;;;;;5078420;28;20436;-87
2023/12/08 10:58:32;;;;;;;1.87;1.77;;;18.90;38.20;;;;;;5061902;28;20464;-87
2023/12/08 11:00:58;;;;;;;1.97;1.87;;;18.90;38.20;;;;;;5080070;28;20423;-87
2023/12/08 11:03:32;;;;;;;1.90;1.80;;;18.90;38.20;;;;;;5063943;28;20448;-86
2023/12/08 11:06:08;;;;;;;1.80;1.70;;;18.90;38.20;;;;;;5079188;28;20421;-87
2023/12/08 11:08:34;;;;;;;2.10;2.00;;;18.90;38.20;;;;;;5078613;28;20466;-87
2023/12/08 11:11:03;;;;;;;1.90;1.80;;;18.90;38.20;;;;;;5074761;28;20488;-87
2023/12/08 11:13:33;;;;;;;2.13;2.03;;;18.90;38.20;;;;;;5079970;28;20456;-87
2023/12/08 11:16:09;;;;;;;1.90;1.80;;;18.90;38.20;;;;;;5078600;28;20484;-86
2023/12/08 11:18:37;;;;;;;1.93;1.83;;;18.90;38.20;;;;;;5078878;28;20539;-87
2023/12/08 11:21:07;;;;;;;1.80;1.70;;;18.90;38.20;;;;;;5061788;28;20443;-87
2023/12/08 11:23:34;;;;;;;1.90;1.80;;;18.90;38.20;;;;;;5076693;28;20495;-87
2023/12/08 11:26:15;;;;;;;2.10;2.00;;;18.90;38.20;;;;;;5078284;28;20432;-86
2023/12/08 11:29:12;;;;;;;1.93;1.60;;;18.90;38.20;;;;;;5077114;28;20443;-87
2023/12/08 11:31:43;;;;;;;2.13;1.97;;;18.90;38.20;;;;;;5077408;28;20436;-86
2023/12/08 11:34:24;;;;;;;1.90;1.80;;;18.90;38.20;;;;;;5078169;28;20436;-87
2023/12/08 11:36:50;;;;;;;1.90;1.80;;;18.90;38.20;;;;;;5076633;27;20445;-87
2023/12/08 11:39:38;;;;;;;1.70;1.60;;;18.90;38.20;;;;;;5075417;28;20419;-86
2023/12/08 11:42:11;;;;;;;1.90;1.80;;;18.90;38.20;;;;;;5058867;28;21728;-87
2023/12/08 11:44:47;;;;;;;2.00;1.90;;;18.90;38.20;;;;;;5070366;28;20484;-87
2023/12/08 11:47:15;;;;;;;1.77;1.67;;;18.90;38.20;;;;;;5060288;27;20507;-87
2023/12/08 11:49:45;;;;;;;1.70;1.60;;;18.90;38.30;;;;;;5075956;28;20466;-87
2023/12/08 11:52:13;;;;;;;1.90;1.80;;;18.90;38.20;;;;;;5077279;28;20482;-87
2023/12/08 11:55:09;;;;;;;2.13;2.00;;;18.90;38.20;;;;;;5072171;28;20468;-87
2023/12/08 11:58:00;;;;;;;2.00;1.90;;;18.90;38.20;;;;;;5055210;28;20472;-86
2023/12/08 12:00:27;;;;;;;2.10;2.00;;;18.90;38.20;;;;;;5057906;28;20550;-86
2023/12/08 12:02:55;;;;;;;1.73;1.63;;;18.90;38.20;;;;;;5073842;28;20454;-87
2023/12/08 12:05:21;;;;;;;1.93;1.83;;;18.90;38.20;;;;;;5075141;28;20457;-88
2023/12/08 12:07:51;;;;;;;1.60;1.50;;;18.90;38.20;;;;;;5076385;27;20458;-87
2023/12/08 12:10:38;;;;;;;1.90;1.80;;;18.90;38.20;;;;;;5075817;28;20594;-87
2023/12/08 12:13:12;;;;;;;1.77;1.67;;;18.90;38.20;;;;;;5074736;28;20497;-87
2023/12/08 12:15:40;;;;;;;2.10;2.00;;;18.90;38.20;;;;;;5075783;28;20466;-87
2023/12/08 12:18:06;;;;;;;1.87;1.77;;;18.90;38.20;;;;;;5074737;28;20582;-87
2023/12/08 12:20:38;;;;;;;3.33;2.63;;;18.90;38.20;;;;;;5069061;27;20921;-87
2023/12/08 12:23:04;;;;;;;1.87;1.77;;;18.90;38.20;;;;;;5072291;28;20228;-87
2023/12/08 12:25:30;;;;;;;1.67;1.57;;;18.90;38.20;;;;;;5074581;28;20440;-87
2023/12/08 12:27:57;;;;;;;1.80;1.70;;;18.90;38.30;;;;;;5072173;28;20472;-88
2023/12/08 12:30:23;;;;;;;1.80;1.70;;;18.90;38.20;;;;;;5075884;28;20268;-87
2023/12/08 12:32:49;;;;;;;1.73;1.63;;;18.90;38.20;;;;;;5074742;28;20539;-89
2023/12/08 12:35:15;;;;;;;2.07;1.87;;;18.90;38.20;;;;;;5073452;28;20755;-87
2023/12/08 12:37:41;;;;;;;2.33;2.00;;;18.90;38.20;;;;;;5071842;28;20221;-89
2023/12/08 12:40:11;;;;;;;1.73;1.63;;;18.90;38.20;;;;;;5071258;28;20440;-87
2023/12/08 12:42:44;;;;;;;1.90;1.80;;;18.90;38.20;;;;;;5052026;28;20428;-89
2023/12/08 12:45:11;;;;;;;1.90;1.80;;;18.90;38.20;;;;;;5068167;28;21029;-87
2023/12/08 12:47:37;;;;;;;2.03;1.93;;;18.90;38.20;;;;;;5072754;28;20468;-87